• Join FlightAware (Why Join?)
  • Login
  • US Flag 
04:26AM EST


 

Airport Tracker/Info


-or-


 

Live Flight TrackerFlight Track Log ✈ N273SK ✈ 20-Apr-2013 ✈ KCMH - KDTW

Flight Track Log - Related Links

Times and Time Zones

All times are in EDT time to prevent confusion due to time zone crossing. See the N273SK flight status page for this flight to view local times or setup timezone preferences in your user account.

Time Position Orientation Groundspeed Altitude Reporting Facility
EDT Latitude Longitude Course Direction KTS MPH feet Rate Location/Type
08:10AM 40.0022 -82.9128 21° North 134 154 1,500  Level Indianapolis Center
08:11AM 40.0042 -82.9483 274° West 151 174 2,900 2,160 Climbing Indianapolis Center
08:11AM 40.0047 -82.9658 272° West 165 190 3,600 1,980 Climbing Indianapolis Center
08:12AM 40.0081 -83.0142 275° West 190 219 4,900 1,920 Climbing Indianapolis Center
08:12AM 40.0222 -83.0281 323° Northwest 193 222 5,600 2,040 Climbing Indianapolis Center
08:13AM 40.0631 -83.0042 24° Northeast 266 306 7,000 2,160 Climbing Indianapolis Center
08:13AM 40.0803 -82.9800 47° Northeast 271 312 7,800 2,040 Climbing Indianapolis Center
08:14AM 40.1394 -82.9114 42° Northeast 282 325 9,900 1,080 Climbing Indianapolis Center
08:15AM 40.2075 -82.8333 41° Northeast 322 371 10,100 1,020 Climbing Indianapolis Center
08:16AM 40.4304 -82.5765 21° North  Level FlightAware Approximate
08:16AM 40.2872 -82.7414 41° Northeast 347 399 12,100  Level Indianapolis Center
08:17AM 40.3633 -82.6553 41° Northeast 357 411 13,000 420 Climbing Indianapolis Center
08:18AM 40.4419 -82.5797 36° Northeast 346 398 13,000  Level Indianapolis Center
08:19AM 40.5281 -82.5400 19° North 326 375 13,000  Level Indianapolis Center
08:20AM 40.6172 -82.5003 19° North 333 383 13,100  Climbing Indianapolis Center
08:21AM 40.6622 -82.4800 19° North 331 381 13,000 -120 Descending Cleveland Center
08:22AM 40.7525 -82.4386 19° North 326 375 13,000  Level Cleveland Center
08:23AM 40.8406 -82.3972 20° North 326 375 13,100  Climbing Cleveland Center
08:24AM 40.9261 -82.3942 North 324 373 13,000  Descending Cleveland Center
08:25AM 40.9900 -82.4428 330° Northwest 286 329 13,100  Climbing Cleveland Center
08:26AM 41.0619 -82.5025 328° Northwest 291 335 13,100  Level Cleveland Center
08:27AM 41.1339 -82.5653 327° Northwest 302 348 13,100  Level Cleveland Center
08:28AM 41.2078 -82.6283 327° Northwest 307 353 13,100  Level Cleveland Center
08:29AM 41.2817 -82.6914 327° Northwest 307 353 13,100  Level Cleveland Center
08:30AM 41.3617 -82.7606 327° Northwest 307 353 13,100  Level Cleveland Center
08:31AM 41.4336 -82.8211 328° Northwest 307 353 13,100  Level Cleveland Center
08:32AM 41.4911 -82.8703 327° Northwest 311 358 13,100  Level Cleveland Center
08:32AM 41.5072 -82.8872 322° Northwest 307 353 13,100  Level Cleveland Center
08:32AM 41.5339 -82.9078 330° Northwest 311 358 13,100 -420 Level Cleveland Center
08:33AM 41.5792 -82.9456 328° Northwest 307 353 12,700 -840 Descending Cleveland Center
08:33AM 41.6058 -82.9686 327° Northwest 304 350 12,300 -720 Descending Cleveland Center
08:34AM 41.6322 -82.9919 327° Northwest 298 343 12,000 -180 Descending Cleveland Center
08:34AM 41.6836 -83.0383 326° Northwest 283 326 12,100 60 Climbing Cleveland Center
08:35AM 41.7061 -83.0586 326° Northwest 298 343 12,100  Level Cleveland Center
08:35AM 41.7572 -83.0994 329° Northwest 334 384 12,100 -120 Level Cleveland Center
08:36AM 41.7839 -83.1200 330° Northwest 306 352 12,000 -300 Descending Cleveland Center
08:36AM 41.8372 -83.1556 334° Northwest 332 382 11,800 -600 Descending Cleveland Center
08:37AM 41.8658 -83.1792 328° Northwest 318 366 11,400 -720 Descending Cleveland Center
08:37AM 41.9172 -83.2175 331° Northwest 319 367 11,100 -300 Descending Cleveland Center
08:38AM 41.9442 -83.2269 345° North 323 372 11,100  Level Cleveland Center
08:38AM 42.0003 -83.2264 360° North 339 390 11,100  Level Cleveland Center
08:39AM 42.0400 -83.2253 North 325 374 11,100  Level Cleveland Center
08:40AM 42.1089 -83.2253 360° North 302 348 11,100 -120 Level Cleveland Center
08:40AM 42.1236 -83.2203 14° North 317 365 11,000 -540 Descending Cleveland Center
08:40AM 42.1694 -83.2194 North 251 289 10,700 -540 Descending Cleveland Center
08:41AM 42.1967 -83.2067 19° North 290 334 10,500 -1,200 Descending Cleveland Center
08:41AM 42.2372 -83.1747 30° Northeast 244 281 9,400 -1,800 Descending Cleveland Center
08:42AM 42.2983 -83.1350 26° Northeast 238 274 7,700 -1,920 Descending Cleveland Center
08:43AM 42.3483 -83.1483 349° North 185 213 5,500 -1,920 Descending Cleveland Center
08:44AM 42.3300 -83.2122 249° West 197 227 4,000 -1,680 Descending Cleveland Center